Walsh Station, California
Current Conditions -  °F | °C
As of 10:47 PM on Wednesday 22 Oct 2014 (Local Time) from KMHR Reporting Station
Scattered Clouds Scattered Clouds  
Wind Chill: 57°   Ceiling: Unl
Heat Index: 57°   Visibility: 10mi
Dew Point: 43°   Wind: 8mph
Humidity: 59%   Direction: 150°SSE
Pressure: 30.03"   Gusts: NA
Location:  38.5421°N, 121.377°W
Report Text: KMHR 230547Z 15007KT 10SM SCT200 14/06 A3003
Loading
Personal Weather Stations






























Interactive Weather Map
Tropical Storm Tracking
New forecast layout! Learn more

10-Day Weather Forecast

Advertisements
Track Severe Weather on mobile